Time;durP1;ratioP1;P1;durP2;ratioP2;P2;SDS_P1;SDS_P2;PMS_P1;PMS_P2;Temp;Humidity;BMP_temperature;BMP_pressure;BME280_temperature;BME280_humidity;BME280_pressure;Samples;Min_cycle;Max_cycle;Signal;HPM_P1;HPM_P2
2022/05/03 00:02:29;;;;;;;22.13;14.48;;;;;;;8.18;99.82;102035.78;5097635;28;20070;-55
2022/05/03 00:05:07;;;;;;;22.05;15.05;;;;;;;8.16;99.62;102034.06;5092386;28;20028;-54
2022/05/03 00:08:19;;;;;;;27.63;15.60;;;;;;;8.10;100.00;102028.88;5075202;28;20085;-55
2022/05/03 00:10:54;;;;;;;;;;;;;;;8.05;100.00;102034.19;5084411;28;20040;-53
2022/05/03 00:13:27;;;;;;;26.52;16.02;;;;;;;8.06;100.00;102028.03;5091449;28;20343;-56
2022/05/03 00:15:55;;;;;;;26.25;16.38;;;;;;;8.00;100.00;102031.63;5091448;28;20085;-57
2022/05/03 00:18:21;;;;;;;24.83;15.57;;;;;;;7.94;100.00;102025.56;5091659;28;20145;-54
2022/05/03 00:20:48;;;;;;;25.88;16.23;;;;;;;7.90;100.00;102026.50;5092227;28;20093;-54
2022/05/03 00:23:15;;;;;;;27.50;16.00;;;;;;;7.86;100.00;102023.94;5074525;28;20048;-55
2022/05/03 00:25:41;;;;;;;26.00;16.65;;;;;;;7.87;100.00;102020.38;5092370;28;20028;-55
2022/05/03 00:28:08;;;;;;;26.83;17.52;;;;;;;7.85;100.00;102019.56;5083155;28;20035;-55
2022/05/03 00:30:35;;;;;;;26.27;16.75;;;;;;;7.83;100.00;102023.09;5112874;28;20055;-53
2022/05/03 00:33:04;;;;;;;27.48;16.25;;;;;;;7.80;100.00;102031.03;5112782;28;20034;-54
2022/05/03 00:35:31;;;;;;;26.20;16.10;;;;;;;7.77;100.00;102028.47;5094511;28;20481;-55
2022/05/03 00:37:56;;;;;;;25.00;16.33;;;;;;;7.77;100.00;102031.09;5104774;28;20469;-55
2022/05/03 00:40:22;;;;;;;23.33;15.85;;;;;;;7.78;100.00;102028.44;5092542;28;20180;-55
2022/05/03 00:42:54;;;;;;;23.30;16.00;;;;;;;7.80;100.00;102028.41;5074344;28;20424;-55
2022/05/03 00:45:33;;;;;;;27.80;16.23;;;;;;;7.77;100.00;102024.03;5092454;28;20079;-54
2022/05/03 00:48:06;;;;;;;25.98;16.10;;;;;;;7.75;100.00;102023.22;5074971;28;20019;-55
2022/05/03 00:50:47;;;;;;;25.80;15.88;;;;;;;7.67;100.00;102023.31;5074516;28;20078;-54
2022/05/03 00:53:19;;;;;;;25.38;16.63;;;;;;;7.67;100.00;102027.72;5074348;28;20027;-55
2022/05/03 00:56:10;;;;;;;27.00;16.65;;;;;;;7.64;100.00;102023.34;5092331;28;20020;-56
2022/05/03 00:59:02;;;;;;;28.38;16.35;;;;;;;7.61;100.00;102028.66;5093219;28;20023;-56
2022/05/03 01:01:50;;;;;;;27.20;16.95;;;;;;;7.59;100.00;102019.03;5074125;28;20051;-50
2022/05/03 01:04:43;;;;;;;27.85;16.70;;;;;;;7.60;100.00;102018.16;5074097;28;20028;-53
2022/05/03 01:07:34;;;;;;;25.63;15.77;;;;;;;7.59;100.00;102017.25;5074125;28;20077;-56
2022/05/03 01:10:12;;;;;;;31.25;18.17;;;;;;;7.55;100.00;102016.44;5092900;28;20031;-56
2022/05/03 01:12:46;;;;;;;28.85;16.77;;;;;;;7.59;100.00;102019.91;5091945;28;20024;-57
2022/05/03 01:15:19;;;;;;;26.95;17.52;;;;;;;7.57;100.00;102028.72;5092128;28;20372;-54
2022/05/03 01:17:54;;;;;;;27.80;16.95;;;;;;;7.54;100.00;102014.72;5092080;28;20020;-55
2022/05/03 01:21:15;;;;;;;26.17;17.33;;;;;;;7.53;100.00;102015.59;5092797;28;20118;-54
2022/05/03 01:24:10;;;;;;;27.23;16.65;;;;;;;7.52;100.00;102013.84;5003389;28;20027;-56
2022/05/03 01:27:12;;;;;;;28.60;17.65;;;;;;;7.51;100.00;102004.19;5071957;28;20115;-55
2022/05/03 01:29:37;;;;;;;27.33;17.25;;;;;;;7.51;100.00;102014.72;5060231;28;20060;-55
2022/05/03 01:32:07;;;;;;;28.48;16.48;;;;;;;7.59;100.00;102000.59;5074822;28;20113;-54
2022/05/03 01:34:34;;;;;;;28.95;16.38;;;;;;;7.65;100.00;102008.41;5092201;28;20019;-54
2022/05/03 01:36:59;;;;;;;28.63;16.98;;;;;;;7.63;100.00;102003.13;5091935;28;20020;-54
2022/05/03 01:39:55;;;;;;;29.33;16.55;;;;;;;7.57;100.00;102002.34;5091246;28;20035;-56
2022/05/03 01:43:06;;;;;;;28.42;16.15;;;;;;;7.55;100.00;102005.03;5092721;28;20051;-55
2022/05/03 01:45:53;;;;;;;28.00;16.38;;;;;;;7.48;100.00;102011.25;5091752;28;20047;-56
2022/05/03 01:51:47;;;;;;;27.73;16.27;;;;;;;7.32;100.00;102000.91;5093177;28;20039;-55
2022/05/03 01:54:27;;;;;;;28.83;17.27;;;;;;;7.28;100.00;102004.50;5091809;28;20030;-55
2022/05/03 01:57:12;;;;;;;30.65;18.38;;;;;;;7.32;100.00;102000.06;5073567;28;20447;-55
2022/05/03 02:00:05;;;;;;;27.30;16.25;;;;;;;7.30;100.00;102000.09;5089905;28;20024;-55
2022/05/03 02:02:53;;;;;;;28.58;17.33;;;;;;;7.30;100.00;101999.19;5073480;28;20403;-54
2022/05/03 02:05:31;;;;;;;25.10;16.42;;;;;;;7.31;100.00;101998.31;5071164;28;20098;-55
2022/05/03 02:07:57;;;;;;;28.73;18.27;;;;;;;7.28;100.00;101996.59;5072963;28;20391;-54
2022/05/03 02:10:44;;;;;;;29.52;17.30;;;;;;;7.26;100.00;102003.63;5091495;28;20470;-55
2022/05/03 02:14:44;;;;;;;31.25;17.77;;;;;;;7.25;100.00;102003.66;5092495;28;20391;-55
2022/05/03 02:16:41;;;;;;;27.08;16.73;;;;;;;7.22;100.00;101996.66;5091106;28;20032;-56
2022/05/03 02:19:22;;;;;;;27.02;17.92;;;;;;;7.20;100.00;102001.94;5090894;28;20035;-56
2022/05/03 02:22:14;;;;;;;31.73;18.40;;;;;;;7.14;100.00;102007.28;5091252;28;20111;-57
2022/05/03 02:24:39;;;;;;;29.15;16.75;;;;;;;7.15;100.00;102000.28;5092133;28;20051;-57
2022/05/03 02:27:09;;;;;;;27.55;17.80;;;;;;;7.14;100.00;102007.28;5092829;28;20483;-55
2022/05/03 02:29:56;;;;;;;29.35;18.27;;;;;;;7.16;100.00;102010.78;5095195;28;20051;-55
2022/05/03 02:32:30;;;;;;;28.88;18.23;;;;;;;7.13;100.00;102007.31;5094809;28;20024;-55
2022/05/03 02:35:04;;;;;;;30.05;18.50;;;;;;;7.12;100.00;102006.41;5095600;28;20032;-56
2022/05/03 02:37:46;;;;;;;31.33;19.50;;;;;;;7.11;100.00;101999.44;5076466;28;20491;-56
2022/05/03 02:40:18;;;;;;;30.95;19.02;;;;;;;7.13;100.00;102004.69;5094845;28;20023;-55
2022/05/03 02:42:44;;;;;;;30.17;18.58;;;;;;;7.12;100.00;102005.56;5094483;28;20016;-55
2022/05/03 02:45:12;;;;;;;33.05;18.35;;;;;;;7.16;100.00;101994.09;5095674;28;20403;-54
2022/05/03 02:47:45;;;;;;;28.35;18.40;;;;;;;7.19;100.00;102000.19;5090558;28;20570;-56
2022/05/03 02:50:26;;;;;;;29.02;18.40;;;;;;;7.19;100.00;101997.56;5094774;28;20028;-55
2022/05/03 02:53:06;;;;;;;29.27;18.13;;;;;;;7.24;100.00;101994.88;5094138;28;20024;-54
2022/05/03 02:55:49;;;;;;;27.85;17.83;;;;;;;7.25;100.00;101999.28;5095394;28;20028;-56
2022/05/03 02:58:53;;;;;;;37.58;17.85;;;;;;;7.29;100.00;101998.34;5094829;28;20028;-56
2022/05/03 03:01:49;;;;;;;30.60;17.48;;;;;;;7.33;100.00;101997.41;5090552;28;20067;-54
2022/05/03 03:04:49;;;;;;;29.95;18.95;;;;;;;7.35;100.00;102000.00;5094431;28;20032;-56
2022/05/03 03:07:21;;;;;;;31.15;18.63;;;;;;;7.32;100.00;101993.00;5093197;28;20111;-56
2022/05/03 03:10:01;;;;;;;27.00;17.65;;;;;;;7.34;100.00;101995.63;5094183;28;20387;-55
2022/05/03 03:13:02;;;;;;;28.90;17.73;;;;;;;7.32;100.00;101994.78;5094394;28;20031;-56
2022/05/03 03:15:29;;;;;;;31.27;17.73;;;;;;;7.35;100.00;101992.09;5081768;28;20044;-56
2022/05/03 03:17:57;;;;;;;29.77;17.17;;;;;;;7.39;100.00;101996.44;5093998;28;20051;-55
2022/05/03 03:20:25;;;;;;;26.48;17.27;;;;;;;7.45;100.00;101996.34;5093889;28;20050;-54
2022/05/03 03:22:50;;;;;;;30.60;18.02;;;;;;;7.46;100.00;101998.09;5093866;28;20024;-56
2022/05/03 03:25:21;;;;;;;29.10;17.88;;;;;;;7.52;100.00;101987.50;5094098;28;20499;-55
2022/05/03 03:27:51;;;;;;;31.17;17.65;;;;;;;7.55;100.00;101987.44;5093418;28;20036;-55
2022/05/03 03:30:17;;;;;;;27.50;16.90;;;;;;;7.62;100.00;101984.72;5093823;28;20032;-54
2022/05/03 03:32:47;;;;;;;26.95;17.23;;;;;;;7.66;100.00;101982.03;5093859;28;20036;-55
2022/05/03 03:35:14;;;;;;;27.70;17.17;;;;;;;7.70;100.00;101981.09;5093729;28;20020;-54
2022/05/03 03:37:46;;;;;;;28.73;17.20;;;;;;;7.80;100.00;101983.56;5093422;28;20024;-55
2022/05/03 03:40:13;;;;;;;;;;;;;;;7.89;100.00;101983.47;5093723;28;20027;-53
2022/05/03 03:42:40;;;;;;;25.48;15.82;;;;;;;7.91;100.00;101980.78;5093693;28;19957;-54
2022/05/03 03:45:09;;;;;;;27.15;16.70;;;;;;;7.91;100.00;101976.38;5093540;28;20056;-54
2022/05/03 03:47:39;;;;;;;26.55;16.35;;;;;;;7.87;100.00;101979.97;5080656;28;20402;-55
2022/05/03 03:50:06;;;;;;;25.35;16.08;;;;;;;7.83;100.00;101976.50;5093481;28;20036;-55
2022/05/03 03:52:34;;;;;;;27.00;16.88;;;;;;;7.83;100.00;101986.19;5093068;28;20022;-55
2022/05/03 03:55:01;;;;;;;27.92;17.40;;;;;;;7.77;100.00;101983.63;5075126;28;20016;-54
2022/05/03 03:57:27;;;;;;;24.92;16.42;;;;;;;7.71;100.00;101992.47;5094117;28;20058;-55
2022/05/03 03:59:54;;;;;;;28.42;17.48;;;;;;;7.68;100.00;101987.28;5075254;28;20028;-57
2022/05/03 04:02:20;;;;;;;26.27;16.75;;;;;;;7.66;100.00;101983.78;5093326;28;20032;-56
2022/05/03 04:04:46;;;;;;;27.60;16.65;;;;;;;7.60;100.00;101987.38;5092842;28;20024;-56
2022/05/03 04:07:12;;;;;;;27.13;17.10;;;;;;;7.55;100.00;101982.16;5093013;28;20032;-56
2022/05/03 04:09:37;;;;;;;29.38;17.15;;;;;;;7.54;100.00;101983.06;5094104;28;20035;-57
2022/05/03 04:12:05;;;;;;;27.80;16.17;;;;;;;7.52;100.00;101987.50;5074799;28;20024;-56
2022/05/03 04:14:30;;;;;;;26.55;16.38;;;;;;;7.54;100.00;101990.09;5092909;28;20103;-54
2022/05/03 04:16:57;;;;;;;26.02;16.00;;;;;;;7.51;100.00;101992.78;5093017;28;20031;-56
2022/05/03 04:19:23;;;;;;;25.23;16.25;;;;;;;7.47;100.00;101980.56;5075613;28;20051;-55
2022/05/03 04:21:49;;;;;;;26.55;16.13;;;;;;;7.41;100.00;101986.75;5092709;28;20594;-55
2022/05/03 04:24:15;;;;;;;25.35;16.38;;;;;;;7.36;100.00;101989.44;5092732;28;20122;-55
2022/05/03 04:26:40;;;;;;;26.95;16.77;;;;;;;7.38;100.00;101994.72;5092839;28;20028;-55
2022/05/03 04:29:07;;;;;;;26.60;17.27;;;;;;;7.37;100.00;101992.97;5073600;28;20066;-57
2022/05/03 04:31:34;;;;;;;28.13;17.88;;;;;;;7.41;100.00;101988.53;5078048;28;20028;-56
2022/05/03 04:34:03;;;;;;;28.08;17.52;;;;;;;7.43;100.00;101992.00;5092193;28;20032;-57
2022/05/03 04:36:32;;;;;;;26.80;16.88;;;;;;;7.48;100.00;101982.25;5092538;28;20298;-58
2022/05/03 04:38:59;;;;;;;27.27;17.90;;;;;;;7.52;100.00;101990.13;5093583;28;20105;-55
2022/05/03 04:41:24;;;;;;;28.92;16.90;;;;;;;7.60;100.00;101989.16;5092047;28;20024;-55
2022/05/03 04:43:50;;;;;;;27.17;18.00;;;;;;;7.71;100.00;101985.47;5073965;28;20055;-57
2022/05/03 04:46:15;;;;;;;27.60;18.15;;;;;;;7.86;100.00;101981.75;5092422;28;20498;-56
2022/05/03 04:48:42;;;;;;;26.55;17.55;;;;;;;7.98;100.00;101979.78;5092287;28;20024;-56
2022/05/03 04:51:19;;;;;;;29.92;18.50;;;;;;;8.08;100.00;101988.44;5093318;28;20543;-56
2022/05/03 04:53:44;;;;;;;30.23;18.20;;;;;;;8.14;100.00;101991.84;5074222;28;20020;-55
2022/05/03 04:56:23;;;;;;;28.15;17.75;;;;;;;8.19;100.00;101990.00;5073996;28;20027;-56
2022/05/03 04:58:50;;;;;;;28.20;17.83;;;;;;;8.22;100.00;101985.56;5073916;28;20102;-56
2022/05/03 05:01:16;;;;;;;26.15;16.98;;;;;;;8.26;100.00;101996.06;5092707;28;20482;-56
2022/05/03 05:03:42;;;;;;;27.17;17.20;;;;;;;8.36;100.00;101994.13;5092263;28;20046;-57
2022/05/03 05:06:08;;;;;;;28.17;17.25;;;;;;;8.43;100.00;101995.78;5092214;28;20028;-56
2022/05/03 05:08:33;;;;;;;27.85;17.42;;;;;;;8.55;100.00;101997.34;5073978;28;20436;-56
2022/05/03 05:10:59;;;;;;;25.10;16.40;;;;;;;8.75;100.00;101998.78;5089726;28;20038;-57
2022/05/03 05:13:25;;;;;;;25.67;16.67;;;;;;;8.89;100.00;102012.59;5057252;28;20504;-57
2022/05/03 05:15:50;;;;;;;27.00;16.88;;;;;;;9.01;100.00;102014.13;5057088;28;20030;-57
2022/05/03 05:18:16;;;;;;;28.30;17.13;;;;;;;9.15;100.00;102009.41;5091864;28;20035;-57
2022/05/03 05:20:41;;;;;;;29.60;17.67;;;;;;;9.31;99.66;102002.06;5091654;28;20024;-56
2022/05/03 05:23:07;;;;;;;29.75;19.00;;;;;;;9.43;99.70;102008.84;5108203;28;20031;-54
2022/05/03 05:25:32;;;;;;;26.98;18.00;;;;;;;9.55;99.36;102010.34;5111970;28;20038;-56
2022/05/03 05:27:57;;;;;;;29.70;19.20;;;;;;;9.64;99.04;102007.53;5111738;28;20782;-56
2022/05/03 05:30:23;;;;;;;28.65;17.38;;;;;;;9.77;98.27;102010.78;5112665;28;20550;-56
2022/05/03 05:32:48;;;;;;;28.20;18.63;;;;;;;9.84;98.35;102017.66;5108637;28;20030;-57
2022/05/03 05:35:14;;;;;;;31.38;19.30;;;;;;;9.90;98.45;102011.34;5092341;28;20503;-56
2022/05/03 05:37:40;;;;;;;30.40;19.55;;;;;;;9.99;98.24;102010.28;5091676;28;20024;-56
2022/05/03 05:40:06;;;;;;;31.95;19.67;;;;;;;10.10;98.16;102010.00;5091539;28;20086;-56
2022/05/03 05:42:32;;;;;;;27.30;19.33;;;;;;;10.29;97.92;101999.84;5073992;28;20048;-56
2022/05/03 05:44:57;;;;;;;32.15;19.95;;;;;;;10.38;96.40;102002.28;5072312;28;20083;-56
2022/05/03 05:47:23;;;;;;;31.00;19.10;;;;;;;10.46;96.05;102010.91;5081329;28;20103;-54
2022/05/03 05:49:49;;;;;;;29.20;18.77;;;;;;;10.51;95.45;102010.78;5070822;28;20032;-56
2022/05/03 05:54:58;;;;;;;29.85;20.65;;;;;;;10.80;95.03;102012.66;5088591;28;20099;-56
2022/05/03 05:57:24;;;;;;;32.33;20.27;;;;;;;10.87;94.27;102013.38;5060903;28;20037;-57
2022/05/03 05:59:49;;;;;;;29.85;19.33;;;;;;;10.98;94.65;102013.06;5073626;28;20074;-55
2022/05/03 06:02:14;;;;;;;31.83;21.40;;;;;;;10.99;94.42;102020.13;5091224;28;20031;-55
2022/05/03 06:04:40;;;;;;;31.90;20.75;;;;;;;11.02;94.60;102011.22;5097442;28;20475;-57
2022/05/03 06:07:06;;;;;;;29.77;21.63;;;;;;;11.10;95.35;102020.69;5095619;28;20024;-56
2022/05/03 06:09:32;;;;;;;31.63;21.15;;;;;;;11.27;94.93;102012.25;5095624;28;20491;-57
2022/05/03 06:11:58;;;;;;;32.40;20.55;;;;;;;11.39;93.83;102018.97;5077148;28;20028;-56
2022/05/03 06:14:23;;;;;;;35.15;23.33;;;;;;;11.45;94.11;102004.69;5099154;28;20016;-54
2022/05/03 06:16:50;;;;;;;32.60;20.77;;;;;;;11.56;93.79;102014.94;5094383;28;20372;-57
2022/05/03 06:19:15;;;;;;;33.08;21.13;;;;;;;11.58;93.38;102002.53;5092431;28;20063;-56
2022/05/03 06:21:41;;;;;;;33.05;21.15;;;;;;;11.59;93.92;102010.44;5077067;28;20487;-56
2022/05/03 06:24:07;;;;;;;29.65;20.08;;;;;;;11.65;93.95;102009.38;5078332;28;20498;-56
2022/05/03 06:26:32;;;;;;;31.65;21.13;;;;;;;11.70;94.33;102014.53;5094678;28;20034;-56
2022/05/03 06:28:58;;;;;;;30.98;21.10;;;;;;;11.75;94.47;102024.09;5091675;28;20034;-58
2022/05/03 06:31:24;;;;;;;29.40;21.73;;;;;;;11.73;94.18;102023.28;5094413;28;20066;-55
2022/05/03 06:33:50;;;;;;;29.67;21.10;;;;;;;11.84;94.67;102022.97;5055557;28;20024;-55
2022/05/03 06:36:16;;;;;;;31.55;22.80;;;;;;;11.76;94.92;102022.31;5081521;28;20036;-56
2022/05/03 06:38:41;;;;;;;31.40;22.35;;;;;;;11.70;94.71;102028.69;5092987;28;20039;-54
2022/05/03 06:41:08;;;;;;;34.00;22.77;;;;;;;11.74;95.81;102027.66;5093258;28;20119;-56
2022/05/03 06:43:34;;;;;;;33.60;23.38;;;;;;;12.02;95.55;102026.84;5076987;28;20024;-57
2022/05/03 06:45:59;;;;;;;37.53;23.27;;;;;;;12.04;94.04;102027.66;5104355;28;20051;-58
2022/05/03 06:48:25;;;;;;;29.77;22.30;;;;;;;12.10;94.13;102022.16;5115161;28;20541;-56
2022/05/03 06:50:51;;;;;;;29.58;21.35;;;;;;;12.04;94.55;102021.47;5114721;28;20028;-56
2022/05/03 06:53:16;;;;;;;33.20;22.90;;;;;;;12.12;94.50;102025.63;5096330;28;20019;-57
2022/05/03 06:55:41;;;;;;;30.48;21.88;;;;;;;12.11;94.02;102033.63;5112953;28;20044;-56
2022/05/03 06:58:07;;;;;;;30.80;21.40;;;;;;;12.12;93.58;102032.72;5112730;28;20047;-57
2022/05/03 07:00:32;;;;;;;29.83;21.17;;;;;;;12.20;93.71;102030.69;5093114;28;20111;-58
2022/05/03 07:02:57;;;;;;;28.73;21.38;;;;;;;12.36;93.07;102030.19;5093066;28;20039;-57
2022/05/03 07:05:23;;;;;;;28.08;19.75;;;;;;;12.43;91.82;102032.59;5093178;28;20036;-53
2022/05/03 07:07:48;;;;;;;30.00;21.52;;;;;;;12.54;91.93;102032.22;5076601;28;20036;-58
2022/05/03 07:10:14;;;;;;;30.25;21.23;;;;;;;12.81;91.97;102031.31;5092923;28;20376;-54
2022/05/03 07:12:39;;;;;;;32.35;21.85;;;;;;;13.10;90.94;102032.94;5093650;28;20402;-56
2022/05/03 07:15:05;;;;;;;31.38;21.00;;;;;;;13.36;88.96;102037.31;5083506;28;20027;-55
2022/05/03 07:22:58;;;;;;;27.45;19.45;;;;;;;13.33;87.65;102036.56;5074790;28;20102;-56
2022/05/03 07:25:24;;;;;;;28.65;19.30;;;;;;;13.23;87.49;102025.38;5081752;28;20056;-57
2022/05/03 07:27:51;;;;;;;27.15;19.20;;;;;;;13.19;87.06;102032.59;5092088;28;20032;-56
2022/05/03 07:30:18;;;;;;;30.05;20.05;;;;;;;13.36;87.86;102041.75;5073135;28;20028;-56
2022/05/03 07:32:44;;;;;;;29.77;20.27;;;;;;;13.49;86.33;102045.72;5092261;28;20028;-57
2022/05/03 07:35:10;;;;;;;28.80;20.23;;;;;;;13.56;86.37;102047.22;5092591;28;20418;-56
2022/05/03 07:37:36;;;;;;;27.75;20.00;;;;;;;13.79;86.01;102037.47;5074784;28;20185;-57
2022/05/03 07:40:03;;;;;;;27.52;19.35;;;;;;;13.92;84.28;102043.19;5092402;28;20034;-56
2022/05/03 07:42:28;;;;;;;27.17;19.52;;;;;;;13.98;85.16;102037.63;5093481;28;20028;-57
2022/05/03 07:44:54;;;;;;;26.77;18.45;;;;;;;14.08;82.47;102041.66;5074623;28;20410;-56
2022/05/03 07:47:19;;;;;;;23.67;16.20;;;;;;;14.07;81.69;102039.91;5093439;28;20062;-56
2022/05/03 07:49:44;;;;;;;23.45;16.52;;;;;;;14.17;81.24;102039.53;5094182;28;20059;-56
2022/05/03 07:52:10;;;;;;;24.70;16.85;;;;;;;14.20;81.96;102040.25;5092756;28;20031;-56
2022/05/03 07:54:41;;;;;;;22.63;16.60;;;;;;;14.57;82.55;102032.53;5098740;28;20503;-57
2022/05/03 07:57:07;;;;;;;24.75;17.77;;;;;;;14.75;79.04;102044.25;5073240;28;20024;-55
2022/05/03 07:59:33;;;;;;;26.70;18.48;;;;;;;14.70;79.31;102046.25;5079190;28;20036;-57
2022/05/03 08:01:59;;;;;;;26.63;18.67;;;;;;;14.59;80.89;102044.00;5083515;28;20380;-54
2022/05/03 08:04:24;;;;;;;28.42;18.38;;;;;;;14.42;80.23;102044.72;5091747;28;20024;-54
2022/05/03 08:06:50;;;;;;;25.42;18.42;;;;;;;14.29;81.34;102036.38;5085397;28;20032;-54
2022/05/03 08:09:15;;;;;;;25.75;17.70;;;;;;;14.12;82.02;102049.50;5092588;28;20046;-56
2022/05/03 08:11:41;;;;;;;26.67;18.85;;;;;;;13.96;82.67;102036.81;5092503;28;20024;-54
2022/05/03 08:14:07;;;;;;;25.75;19.17;;;;;;;13.86;83.55;102043.41;5092247;28;20020;-55
2022/05/03 08:16:32;;;;;;;27.20;18.88;;;;;;;13.77;84.28;102055.28;5092342;28;20062;-56
2022/05/03 08:18:58;;;;;;;28.75;20.42;;;;;;;13.62;85.46;102055.88;5092200;28;20040;-55
2022/05/03 08:21:24;;;;;;;31.40;21.42;;;;;;;13.46;86.95;102055.63;5092296;28;20103;-57
2022/05/03 08:23:49;;;;;;;30.90;20.02;;;;;;;13.46;86.63;102058.28;5091808;28;20123;-57
2022/05/03 08:26:15;;;;;;;31.95;20.75;;;;;;;13.41;86.83;102059.31;5092363;28;20563;-55
2022/05/03 08:28:42;;;;;;;31.40;21.55;;;;;;;13.52;87.88;102060.72;5073069;28;20051;-55
2022/05/03 08:31:10;;;;;;;33.53;21.23;;;;;;;13.71;85.76;102068.88;5095638;28;20023;-50
2022/05/03 08:33:36;;;;;;;31.83;21.48;;;;;;;13.68;85.21;102064.53;5085150;28;20621;-51
2022/05/03 08:36:01;;;;;;;31.48;20.80;;;;;;;13.77;85.12;102065.94;5074017;28;20681;-50
2022/05/03 08:43:58;;;;;;;32.13;21.08;;;;;;;14.98;82.19;102061.06;5056150;28;20083;-54
2022/05/03 08:46:23;;;;;;;34.17;22.65;;;;;;;15.34;78.59;102060.34;5076073;28;20066;-56
2022/05/03 08:48:55;;;;;;;35.22;23.65;;;;;;;15.32;77.47;102056.84;5079302;28;20055;-54
2022/05/03 08:51:23;;;;;;;36.90;24.45;;;;;;;15.34;77.18;102066.53;5089722;28;20095;-53
2022/05/03 08:53:49;;;;;;;43.50;26.58;;;;;;;14.81;79.34;102069.78;5090877;28;20024;-54
2022/05/03 08:56:19;;;;;;;43.05;26.20;;;;;;;14.43;81.69;102065.97;5090579;28;20471;-56
2022/05/03 08:58:45;;;;;;;40.08;25.50;;;;;;;14.22;83.13;102061.50;5091905;28;20031;-51
2022/05/03 09:01:11;;;;;;;44.30;26.55;;;;;;;14.31;82.85;102066.50;5085410;28;20039;-54
2022/05/03 09:03:37;;;;;;;45.00;26.77;;;;;;;14.54;82.76;102073.53;5088800;28;20048;-55
2022/05/03 09:06:06;;;;;;;52.97;28.10;;;;;;;15.46;80.44;102067.78;5090629;28;20024;-51
2022/05/03 09:08:33;;;;;;;49.45;28.38;;;;;;;15.80;77.18;102065.34;5088472;28;20020;-54
2022/05/03 09:10:59;;;;;;;48.92;28.63;;;;;;;15.56;77.46;102077.13;5107863;28;20046;-55
2022/05/03 09:13:28;;;;;;;47.35;28.13;;;;;;;15.93;78.72;102071.00;5094041;28;20026;-54
2022/05/03 09:15:55;;;;;;;56.15;29.90;;;;;;;16.09;76.58;102074.69;5075212;28;20031;-52
2022/05/03 09:18:26;;;;;;;51.08;28.25;;;;;;;16.32;76.09;102068.19;5091716;28;20074;-53
2022/05/03 09:23:49;;;;;;;51.50;28.38;;;;;;;16.31;73.12;102068.28;5091590;28;20093;-53
2022/05/03 09:26:22;;;;;;;49.80;26.40;;;;;;;15.89;77.15;102076.50;5088140;28;20020;-53
2022/05/03 09:28:55;;;;;;;50.45;26.60;;;;;;;15.75;77.42;102073.56;5091155;28;20120;-55
2022/05/03 09:31:36;;;;;;;50.88;25.95;;;;;;;15.50;77.69;102073.84;5101648;28;20479;-55
2022/05/03 09:34:19;;;;;;;47.00;26.42;;;;;;;15.39;78.22;102075.19;5053377;28;20103;-56
2022/05/03 09:36:49;;;;;;;50.63;27.23;;;;;;;15.16;79.00;102075.38;5111269;28;20032;-54
2022/05/03 09:39:24;;;;;;;52.13;26.42;;;;;;;15.04;79.15;102076.78;5095103;28;20023;-55
2022/05/03 09:42:24;;;;;;;43.60;23.70;;;;;;;14.84;78.79;102078.50;5091343;28;20024;-58
2022/05/03 09:45:02;;;;;;;44.17;23.52;;;;;;;14.79;79.11;102076.97;5038396;28;20103;-54
2022/05/03 09:47:33;;;;;;;46.97;23.88;;;;;;;14.50;79.98;102076.38;5074976;28;20040;-52
2022/05/03 09:49:59;;;;;;;45.33;23.20;;;;;;;14.90;80.54;102085.41;5072240;28;20020;-54
2022/05/03 09:52:29;;;;;;;41.35;22.08;;;;;;;15.46;77.69;102070.47;5070912;28;20035;-56
2022/05/03 09:55:05;;;;;;;44.70;23.00;;;;;;;15.37;76.35;102076.19;5070514;28;20039;-51
2022/05/03 09:57:49;;;;;;;43.03;22.90;;;;;;;15.17;77.10;102072.63;5074714;28;20028;-54
2022/05/03 10:00:17;;;;;;;40.17;21.45;;;;;;;15.40;78.29;102068.06;5074478;28;20051;-54
2022/05/03 10:02:43;;;;;;;42.95;22.50;;;;;;;15.55;77.48;102070.03;5075522;28;20041;-54
2022/05/03 10:05:11;;;;;;;40.53;21.40;;;;;;;15.84;77.15;102067.84;5072698;28;20475;-50
2022/05/03 10:07:40;;;;;;;41.65;23.08;;;;;;;16.07;74.95;102065.84;5080391;28;20486;-53
2022/05/03 10:10:10;;;;;;;40.38;22.15;;;;;;;16.16;74.01;102068.09;5072705;28;20055;-54
2022/05/03 10:12:36;;;;;;;41.67;22.17;;;;;;;16.13;73.37;102072.72;5074569;28;20483;-55
2022/05/03 10:15:02;;;;;;;41.13;21.20;;;;;;;15.77;73.96;102065.47;5073515;28;20028;-51
2022/05/03 10:20:42;;;;;;;38.75;20.60;;;;;;;15.92;73.58;102062.13;5075240;28;20036;-56
2022/05/03 10:23:23;;;;;;;36.78;19.73;;;;;;;16.17;73.91;102067.13;5073919;28;20543;-54
2022/05/03 10:25:57;;;;;;;35.53;19.58;;;;;;;16.30;72.58;102064.72;5074629;28;20025;-55
2022/05/03 10:28:24;;;;;;;36.28;19.05;;;;;;;16.48;69.93;102065.63;5063100;28;20159;-56
2022/05/03 10:31:21;;;;;;;36.65;19.02;;;;;;;16.03;71.38;102062.47;5054337;28;20136;-56
2022/05/03 10:33:46;;;;;;;40.30;21.42;;;;;;;15.74;73.94;102066.50;5041621;28;20045;-56
2022/05/03 10:36:30;;;;;;;38.20;19.98;;;;;;;15.55;75.62;102071.84;5073386;28;20542;-54
2022/05/03 10:39:05;;;;;;;38.75;21.15;;;;;;;15.67;75.09;102068.59;5054505;28;20039;-56
2022/05/03 10:41:30;;;;;;;40.65;21.10;;;;;;;15.62;75.52;102069.75;5054976;28;20491;-55
2022/05/03 10:43:56;;;;;;;38.50;20.67;;;;;;;15.88;74.71;102060.53;5076830;28;20040;-57
2022/05/03 10:46:23;;;;;;;35.80;19.63;;;;;;;15.93;73.86;102063.84;5095052;28;20439;-56
2022/05/03 10:49:09;;;;;;;32.70;18.38;;;;;;;15.88;71.47;102056.06;5092270;28;20032;-56
2022/05/03 10:51:35;;;;;;;30.63;17.55;;;;;;;16.07;73.85;102057.84;5086972;28;20020;-58
2022/05/03 10:54:02;;;;;;;35.28;18.80;;;;;;;15.99;73.02;102057.34;5077410;28;20032;-54
2022/05/03 10:56:28;;;;;;;38.70;21.25;;;;;;;16.01;72.71;102056.34;5094816;28;20044;-57
2022/05/03 10:59:02;;;;;;;39.53;21.73;;;;;;;15.62;75.48;102054.59;5093516;28;20043;-56
2022/05/03 11:01:28;;;;;;;36.45;19.80;;;;;;;15.53;77.43;102063.03;5094224;28;20203;-55
2022/05/03 11:03:59;;;;;;;35.15;19.40;;;;;;;15.89;75.55;102049.78;5069587;28;20047;-56
2022/05/03 11:06:25;;;;;;;36.60;20.48;;;;;;;15.98;74.61;102052.94;5097518;28;20047;-56
2022/05/03 11:11:43;;;;;;;36.65;19.95;;;;;;;15.78;74.67;102045.84;5093526;28;20036;-56
2022/05/03 11:14:18;;;;;;;35.83;19.63;;;;;;;16.02;74.70;102042.06;5093642;28;20023;-53
2022/05/03 11:16:45;;;;;;;33.30;19.13;;;;;;;16.36;74.46;102042.19;5090782;28;20020;-55
2022/05/03 11:19:23;;;;;;;28.60;16.88;;;;;;;16.68;71.73;102045.03;5092668;28;20039;-55
2022/05/03 11:21:49;;;;;;;26.10;15.63;;;;;;;16.83;70.94;102030.00;5093329;28;20020;-55
2022/05/03 11:24:21;;;;;;;20.63;13.00;;;;;;;16.81;71.46;102034.56;5092481;28;20031;-55
2022/05/03 11:26:52;;;;;;;21.52;14.00;;;;;;;16.98;70.29;102023.88;5085633;28;20028;-55
2022/05/03 11:29:18;;;;;;;26.35;16.50;;;;;;;16.87;69.92;102027.06;5092479;28;20032;-55
2022/05/03 11:31:49;;;;;;;32.88;18.58;;;;;;;16.49;72.62;102026.38;5075231;28;20028;-54
2022/05/03 11:34:15;;;;;;;37.70;20.98;;;;;;;16.16;74.46;102027.13;5093478;28;20099;-56
2022/05/03 11:36:42;;;;;;;36.85;19.75;;;;;;;16.05;75.48;102028.53;5093036;28;20028;-55
2022/05/03 11:39:09;;;;;;;40.50;20.73;;;;;;;15.70;76.18;102022.19;5084532;28;20039;-55
2022/05/03 11:41:36;;;;;;;35.95;20.10;;;;;;;15.58;76.96;102018.31;5074848;28;20059;-55
2022/05/03 11:44:02;;;;;;;38.33;20.40;;;;;;;15.75;77.92;102027.31;5092796;28;20088;-55
2022/05/03 11:46:28;;;;;;;34.97;19.55;;;;;;;16.02;76.01;102022.47;5092345;28;20627;-55
2022/05/03 11:49:02;;;;;;;33.17;18.27;;;;;;;16.36;75.71;102016.31;5087902;28;20480;-55
2022/05/03 11:57:22;;;;;;;32.47;17.67;;;;;;;16.74;71.96;102009.06;5088627;28;20075;-56
2022/05/03 11:59:49;;;;;;;30.87;17.40;;;;;;;16.89;71.46;102013.59;5067845;28;20072;-55